Lionhead Wind

Lionhead weather stationLocated on Lionhead Ridge near West Yellowstone. Use the nearest SNOTEL station for snow depth data: Madison Plateau. The data on this page is also available to view at dataGarrison.com.

Elevation
9420ft
Jump to table bottom
Date Time Temperature
deg F
RH, % Wind Speed Wind Gust Wind Direction Pressure Light
02/25/24 23:00 21.7 97 38 58 W - 253 705.900 0
02/25/24 22:00 21.7 97 40 59 W - 253 706.540 0
02/25/24 21:00 22.1 97 43 60 W - 251 706.680 0
02/25/24 20:00 22.5 96 52 77 W - 258 706.860 0
02/25/24 19:00 23.5 95 54 81 W - 260 707.520 0
02/25/24 18:00 22.9 92 52 80 W - 257 707.060 0
02/25/24 17:00 22.3 97 51 72 W - 264 707.720 0
02/25/24 16:00 22.6 95 52 71 W - 264 707.820 0
02/25/24 15:00 21.9 97 44 65 W - 265 707.660 0
02/25/24 14:00 21.5 97 37 49 W - 263 708.520 0
02/25/24 13:00 20.6 96 31 41 W - 270 709.460 0
02/25/24 12:00 20.1 96 34 44 W - 264 709.780 0
02/25/24 11:00 19.6 96 34 46 W - 264 710.480 0
02/25/24 10:00 19.2 95 25 35 W - 268 711.120 0
02/25/24 09:00 19.3 95 23 31 W - 268 711.200 0
02/25/24 08:00 20.0 95 19 31 W - 274 711.200 0
02/25/24 07:00 20.1 86 18 38 W - 291 711.140 0
02/25/24 06:00 21.3 79 19 44 NW - 299 710.960 0
02/25/24 05:00 20.8 82 30 46 W - 285 710.620 0
02/25/24 04:00 21.2 83 25 44 W - 284 711.120 0
02/25/24 03:00 22.0 82 15 41 NW - 296 711.680 0
02/25/24 02:00 22.1 80 17 40 NW - 296 711.460 0
02/25/24 01:00 21.9 80 17 40 NW - 296 711.240 0
02/25/24 00:00 21.1 87 17 38 NW - 296 711.400 0
02/24/24 23:00 21.8 86 20 41 NW - 295 711.980 0
02/24/24 22:00 22.5 86 32 49 W - 289 711.480 0
02/24/24 21:00 21.4 97 41 57 W - 279 711.640 0
02/24/24 20:00 21.5 96 44 65 W - 278 711.080 0
02/24/24 19:00 21.0 96 27 56 W - 289 710.800 0
02/24/24 18:00 19.9 96 31 43 W - 277 712.660 0
02/24/24 17:00 20.0 96 31 49 W - 278 712.620 0
02/24/24 16:00 19.7 95 34 51 W - 272 712.320 0
02/24/24 15:00 23.5 78 22 41 NW - 295 713.060 0
02/24/24 14:00 23.0 78 28 44 W - 286 713.120 0
02/24/24 13:00 24.4 72 20 40 W - 289 713.920 0
02/24/24 12:00 21.6 81 20 40 W - 291 714.140 0
02/24/24 11:00 20.8 86 20 40 W - 265 714.620 0
02/24/24 10:00 19.9 93 16 28 W - 263 715.360 0
02/24/24 09:00 17.2 95 22 31 W - 254 714.620 0
02/24/24 08:00 15.2 95 17 29 W - 250 714.600 0
02/24/24 07:00 15.0 95 17 25 W - 250 715.000 0
02/24/24 06:00 14.5 95 15 21 W - 250 715.060 0
02/24/24 05:00 14.4 95 20 30 W - 256 715.680 0
02/24/24 04:00 15.0 95 23 33 W - 268 715.000 0
02/24/24 03:00 15.1 95 15 31 W - 267 715.000 0
02/24/24 02:00 15.1 95 23 34 W - 272 716.220 0
02/24/24 01:00 15.4 96 20 28 W - 281 715.760 0
02/24/24 00:00 15.2 97 24 32 W - 278 716.300 0
02/23/24 23:00 15.1 99 29 40 W - 277 716.900 0
02/23/24 22:00 16.2 88 21 42 NW - 295 717.260 0